Time;durP1;ratioP1;P1;durP2;ratioP2;P2;SDS_P1;SDS_P2;PMS_P1;PMS_P2;Temp;Humidity;BMP_temperature;BMP_pressure;BME280_temperature;BME280_humidity;BME280_pressure;Samples;Min_cycle;Max_cycle;Signal;HPM_P1;HPM_P2
2021/12/30 00:02:05;;;;;;;6.97;2.60;;;;;;;-10.37;80.51;99646.78;5038629;28;20057;-69
2021/12/30 00:04:36;;;;;;;4.28;2.28;;;;;;;-10.28;80.40;99653.22;5038464;28;20049;-69
2021/12/30 00:07:08;;;;;;;6.28;2.67;;;;;;;-10.14;80.01;99671.63;5038783;28;20049;-69
2021/12/30 00:09:39;;;;;;;7.28;2.80;;;;;;;-10.31;80.75;99634.47;5038786;28;20057;-69
2021/12/30 00:12:11;;;;;;;3.53;2.30;;;;;;;-10.17;80.41;99671.47;5038783;28;20093;-70
2021/12/30 00:14:43;;;;;;;8.88;2.67;;;;;;;-10.28;81.20;99665.84;5038355;28;20379;-69
2021/12/30 00:17:16;;;;;;;5.55;2.42;;;;;;;-10.77;80.86;99614.22;5038345;28;20064;-70
2021/12/30 00:19:46;;;;;;;9.13;2.78;;;;;;;-10.43;80.17;99662.47;5038158;28;20049;-69
2021/12/30 00:22:17;;;;;;;5.78;2.47;;;;;;;-10.55;80.30;99644.94;5038376;28;20092;-70
2021/12/30 00:24:48;;;;;;;4.85;2.47;;;;;;;-10.38;80.15;99680.38;5038186;28;20060;-70
2021/12/30 00:27:19;;;;;;;5.22;3.10;;;;;;;-10.43;79.75;99665.84;5038204;28;20116;-69
2021/12/30 00:29:50;;;;;;;7.10;2.47;;;;;;;-10.42;79.82;99665.06;5038063;28;20429;-69
2021/12/30 00:32:22;;;;;;;4.63;2.75;;;;;;;-10.47;79.08;99671.50;5037957;28;20069;-70
2021/12/30 00:34:53;;;;;;;3.33;2.63;;;;;;;-10.57;78.87;99669.22;5038081;28;20080;-69
2021/12/30 00:37:24;;;;;;;4.60;2.05;;;;;;;-10.53;79.09;99686.31;5037899;28;20248;-69
2021/12/30 00:39:55;;;;;;;5.80;2.70;;;;;;;-10.74;79.07;99680.00;5038184;28;20057;-69
2021/12/30 00:42:25;;;;;;;7.53;2.95;;;;;;;-11.00;79.47;99638.97;5037790;28;20053;-69
2021/12/30 00:44:56;;;;;;;4.70;2.35;;;;;;;-10.92;79.33;99680.66;5037935;28;20112;-68
2021/12/30 00:47:29;;;;;;;5.20;2.50;;;;;;;-10.95;79.23;99684.69;5037944;28;20104;-69
2021/12/30 00:49:59;;;;;;;4.38;2.72;;;;;;;-10.90;79.18;99699.28;5037788;28;20061;-69
2021/12/30 00:52:30;;;;;;;6.80;3.15;;;;;;;-10.83;79.26;99679.44;5037957;28;20240;-68
2021/12/30 00:55:01;;;;;;;5.28;2.78;;;;;;;-10.75;78.33;99688.38;5037686;28;20423;-69
2021/12/30 00:57:31;;;;;;;2.53;2.13;;;;;;;-10.86;78.31;99658.34;5037741;28;20248;-69
2021/12/30 01:00:02;;;;;;;8.20;3.03;;;;;;;-10.74;77.93;99685.91;5037596;28;20475;-69
2021/12/30 01:02:34;;;;;;;8.32;3.30;;;;;;;-10.93;78.25;99658.75;5037524;28;20052;-69
2021/12/30 01:05:06;;;;;;;4.60;2.83;;;;;;;-10.79;78.12;99658.69;5037520;28;20379;-70
2021/12/30 01:07:37;;;;;;;9.13;2.75;;;;;;;-10.86;77.50;99650.75;5037609;28;20042;-70
2021/12/30 01:10:12;;;;;;;5.47;2.75;;;;;;;-10.66;77.83;99693.94;5037298;28;20049;-69
2021/12/30 01:12:43;;;;;;;9.50;3.65;;;;;;;-10.84;77.32;99657.53;5037422;28;20053;-69
2021/12/30 01:15:17;;;;;;;6.82;2.65;;;;;;;-10.53;77.29;99691.38;5037641;28;20053;-69
2021/12/30 01:17:54;;;;;;;9.20;3.03;;;;;;;-10.42;76.73;99681.88;5037506;28;20056;-69
2021/12/30 01:20:25;;;;;;;5.80;2.83;;;;;;;-10.62;76.76;99654.63;5037132;28;20232;-69
2021/12/30 01:22:56;;;;;;;6.80;3.55;;;;;;;-10.50;76.56;99671.34;5037269;28;20061;-69
2021/12/30 01:25:27;;;;;;;4.43;2.78;;;;;;;-10.53;76.58;99656.00;5037306;28;20057;-69
2021/12/30 01:27:57;;;;;;;6.32;2.85;;;;;;;-10.43;76.15;99663.31;5036714;28;20049;-71
2021/12/30 01:30:28;;;;;;;5.60;3.00;;;;;;;-10.56;76.30;99625.50;5036684;28;20045;-69
2021/12/30 01:33:01;;;;;;;4.75;2.88;;;;;;;-10.35;76.19;99665.41;5036559;28;20045;-68
2021/12/30 01:35:32;;;;;;;5.88;3.35;;;;;;;-10.44;76.00;99651.47;5036956;28;20084;-68
2021/12/30 01:38:02;;;;;;;6.60;2.80;;;;;;;-10.39;76.24;99643.28;5037069;28;20079;-69
2021/12/30 01:40:33;;;;;;;6.22;2.78;;;;;;;-10.36;76.22;99648.50;5036606;28;20109;-70
2021/12/30 01:43:04;;;;;;;7.05;3.63;;;;;;;-10.39;75.79;99630.66;5035985;28;20300;-68
2021/12/30 01:45:35;;;;;;;5.90;3.58;;;;;;;-10.24;76.12;99634.00;5033155;28;20053;-69
2021/12/30 01:48:08;;;;;;;8.70;3.42;;;;;;;-10.17;75.39;99636.09;5033278;28;20073;-69
2021/12/30 01:50:40;;;;;;;7.35;2.70;;;;;;;-10.48;75.58;99598.19;5033509;28;20279;-69
2021/12/30 01:53:13;;;;;;;6.53;3.28;;;;;;;-10.43;75.35;99627.97;5033497;28;20049;-69
2021/12/30 01:55:45;;;;;;;12.05;3.38;;;;;;;-10.44;75.65;99646.41;5033665;28;20240;-69
2021/12/30 01:58:16;;;;;;;8.82;3.67;;;;;;;-10.50;75.65;99630.94;5032345;28;20553;-68
2021/12/30 02:00:49;;;;;;;7.60;3.40;;;;;;;-10.75;75.33;99577.31;5033173;28;20399;-69
2021/12/30 02:03:22;;;;;;;6.93;3.05;;;;;;;-10.51;75.46;99608.97;5033300;28;20041;-69
2021/12/30 02:05:54;;;;;;;8.43;3.72;;;;;;;-10.49;75.46;99582.16;5033507;28;20068;-68
2021/12/30 02:08:24;;;;;;;12.23;3.72;;;;;;;-10.26;75.30;99616.25;5033151;28;20073;-69
2021/12/30 02:10:55;;;;;;;6.95;3.60;;;;;;;-10.31;75.04;99611.75;5032405;28;20064;-69
2021/12/30 02:13:26;;;;;;;8.48;3.90;;;;;;;-10.52;75.26;99612.28;5033192;28;20121;-68
2021/12/30 02:16:01;;;;;;;6.32;4.18;;;;;;;-10.41;75.48;99620.47;5033263;28;20054;-68
2021/12/30 02:18:34;;;;;;;10.27;4.05;;;;;;;-10.43;75.78;99627.97;5033128;28;20116;-69
2021/12/30 02:21:06;;;;;;;6.97;3.45;;;;;;;-10.39;75.99;99628.13;5033125;28;20049;-68
2021/12/30 02:23:38;;;;;;;6.70;3.30;;;;;;;-10.30;75.55;99621.09;5033236;28;20046;-68
2021/12/30 02:26:10;;;;;;;3.70;2.88;;;;;;;-10.25;75.76;99622.19;5034834;28;20053;-68
2021/12/30 02:28:41;;;;;;;5.90;3.85;;;;;;;-10.32;75.95;99610.03;5036671;28;20075;-69
2021/12/30 02:31:14;;;;;;;10.48;4.22;;;;;;;-10.87;75.54;99487.50;5035635;28;20340;-68
2021/12/30 02:33:46;;;;;;;8.90;3.72;;;;;;;-10.09;75.64;99599.47;5036182;28;20072;-68
2021/12/30 02:36:20;;;;;;;9.75;4.05;;;;;;;-9.73;75.35;99619.97;5035922;28;20694;-68
2021/12/30 02:38:51;;;;;;;5.53;2.55;;;;;;;-9.53;74.35;99598.28;5035718;28;20099;-70
2021/12/30 02:41:22;;;;;;;5.32;2.88;;;;;;;-9.48;73.52;99621.25;5035630;28;20084;-69
2021/12/30 02:43:53;;;;;;;8.60;2.90;;;;;;;-9.64;73.81;99605.28;5035646;28;20065;-69
2021/12/30 02:46:28;;;;;;;6.97;3.05;;;;;;;-9.83;74.19;99592.47;5035432;28;20049;-70
2021/12/30 02:49:00;;;;;;;11.85;3.10;;;;;;;-10.40;74.55;99505.19;5035744;28;20065;-69
2021/12/30 02:51:33;;;;;;;7.13;2.88;;;;;;;-9.64;74.55;99605.28;5035425;28;20096;-67
2021/12/30 02:54:06;;;;;;;5.68;3.03;;;;;;;-9.71;74.37;99577.91;5035500;28;20053;-68
2021/12/30 02:56:36;;;;;;;7.85;3.10;;;;;;;-9.43;74.38;99590.38;5035384;28;20053;-68
2021/12/30 02:59:07;;;;;;;4.50;2.83;;;;;;;-9.40;73.54;99574.47;5035114;28;20115;-69
2021/12/30 03:01:38;;;;;;;3.58;2.40;;;;;;;-9.38;72.88;99588.09;5035556;28;20053;-68
2021/12/30 03:04:10;;;;;;;5.90;2.67;;;;;;;-10.00;72.94;99509.00;5035472;28;20053;-68
2021/12/30 03:06:43;;;;;;;6.78;3.20;;;;;;;-9.34;73.75;99589.97;5035807;28;20088;-69
2021/12/30 03:09:14;;;;;;;6.72;2.83;;;;;;;-9.36;73.01;99571.28;5035744;28;20068;-68
2021/12/30 03:11:45;;;;;;;3.95;2.28;;;;;;;-9.25;73.04;99585.38;5035720;28;20057;-68
2021/12/30 03:14:15;;;;;;;6.10;2.95;;;;;;;-9.37;73.30;99579.69;5035998;28;20283;-68
2021/12/30 03:16:46;;;;;;;7.35;3.22;;;;;;;-9.37;73.23;99565.38;5034949;28;20076;-70
2021/12/30 03:19:17;;;;;;;10.02;3.33;;;;;;;-9.17;73.31;99579.03;5036352;28;20053;-69
2021/12/30 03:21:50;;;;;;;5.20;3.00;;;;;;;-9.10;72.84;99586.97;5036333;28;20110;-68
2021/12/30 03:24:20;;;;;;;7.55;3.28;;;;;;;-9.39;72.52;99541.66;5035310;28;20049;-69
2021/12/30 03:26:51;;;;;;;3.97;2.92;;;;;;;-9.35;72.87;99588.22;5035757;28;20045;-68
2021/12/30 03:29:22;;;;;;;7.53;3.10;;;;;;;-9.65;73.82;99555.50;5035650;28;20996;-68
2021/12/30 03:31:53;;;;;;;6.07;2.83;;;;;;;-9.74;73.50;99542.38;5035566;28;20058;-67
2021/12/30 03:34:24;;;;;;;4.22;2.35;;;;;;;-9.79;74.20;99553.91;5035506;28;20047;-67
2021/12/30 03:36:56;;;;;;;2.80;1.98;;;;;;;-9.55;74.23;99580.47;5035194;28;20539;-68
2021/12/30 03:39:27;;;;;;;5.15;2.55;;;;;;;-9.49;73.89;99576.53;5035619;28;20061;-69
2021/12/30 03:41:59;;;;;;;7.60;2.50;;;;;;;-9.32;73.84;99583.31;5035552;28;20291;-69
2021/12/30 03:44:29;;;;;;;3.42;2.30;;;;;;;-9.31;73.40;99554.69;5034699;28;20116;-68
2021/12/30 03:47:01;;;;;;;7.13;3.00;;;;;;;-9.59;73.18;99512.81;5034695;28;20096;-69
2021/12/30 03:49:31;;;;;;;2.75;2.10;;;;;;;-9.48;73.28;99535.25;5035167;28;20075;-69
2021/12/30 03:52:04;;;;;;;5.65;2.15;;;;;;;-9.53;73.35;99537.56;5034841;28;20056;-68
2021/12/30 03:54:35;;;;;;;7.47;2.50;;;;;;;-9.42;73.50;99571.00;5034427;28;20250;-68
2021/12/30 03:57:06;;;;;;;3.83;2.53;;;;;;;-9.47;74.27;99562.31;5034407;28;20053;-69
2021/12/30 03:59:37;;;;;;;5.55;2.50;;;;;;;-9.77;74.67;99532.09;5034948;28;20399;-69
2021/12/30 04:02:08;;;;;;;5.57;2.70;;;;;;;-9.67;74.55;99563.78;5034995;28;20053;-68
2021/12/30 04:04:39;;;;;;;3.35;2.25;;;;;;;-9.67;74.68;99554.53;5033043;28;20053;-68
2021/12/30 04:07:12;;;;;;;4.30;2.47;;;;;;;-9.73;74.99;99566.88;5035077;28;20077;-68
2021/12/30 04:09:42;;;;;;;9.02;2.45;;;;;;;-9.79;75.49;99574.13;5034885;28;20073;-69
2021/12/30 04:12:13;;;;;;;6.25;2.30;;;;;;;-9.82;75.62;99563.84;5034943;28;20084;-68
2021/12/30 04:14:44;;;;;;;4.55;2.30;;;;;;;-9.86;75.41;99547.66;5034669;28;20060;-68
2021/12/30 04:17:15;;;;;;;3.22;2.08;;;;;;;-9.62;75.37;99573.34;5034793;28;20120;-68
2021/12/30 04:19:46;;;;;;;8.25;2.92;;;;;;;-9.62;75.58;99563.25;5034884;28;20112;-68
2021/12/30 04:22:19;;;;;;;9.65;3.03;;;;;;;-9.61;75.21;99565.00;5035040;28;20553;-68
2021/12/30 04:24:50;;;;;;;9.98;3.55;;;;;;;-9.67;75.29;99549.47;5034878;28;20045;-69
2021/12/30 04:27:21;;;;;;;4.75;2.63;;;;;;;-9.50;75.02;99577.31;5034968;28;20580;-68
2021/12/30 04:29:52;;;;;;;7.28;4.10;;;;;;;-9.51;75.21;99580.63;5034921;28;20112;-69
2021/12/30 04:32:22;;;;;;;9.15;3.17;;;;;;;-9.61;75.11;99570.06;5034139;28;20087;-71
2021/12/30 04:34:53;;;;;;;3.80;2.63;;;;;;;-9.62;75.43;99578.41;5034125;28;20395;-69
2021/12/30 04:37:26;;;;;;;6.82;3.05;;;;;;;-9.62;75.87;99578.41;5034242;28;20076;-69
2021/12/30 04:39:57;;;;;;;4.30;2.67;;;;;;;-9.83;75.53;99563.00;5034140;28;20088;-70
2021/12/30 04:42:28;;;;;;;6.13;3.13;;;;;;;-9.84;76.04;99565.44;5034155;28;20124;-69
2021/12/30 04:44:58;;;;;;;7.20;3.00;;;;;;;-9.74;75.84;99571.84;5030694;28;20045;-68
2021/12/30 04:47:29;;;;;;;4.57;3.20;;;;;;;-9.77;76.33;99580.13;5033977;28;20593;-67
2021/12/30 04:50:00;;;;;;;3.72;2.45;;;;;;;-9.74;76.36;99594.59;5033026;28;20071;-66
2021/12/30 04:52:32;;;;;;;8.30;3.40;;;;;;;-9.76;76.68;99591.97;5031526;28;20049;-69
2021/12/30 04:55:03;;;;;;;10.13;3.38;;;;;;;-9.69;76.49;99596.56;5032308;28;20108;-67
2021/12/30 04:57:34;;;;;;;5.63;2.83;;;;;;;-9.79;76.53;99599.41;5031873;28;20232;-68
2021/12/30 05:00:07;;;;;;;6.10;2.45;;;;;;;-9.83;76.04;99592.47;5030385;28;20084;-68
2021/12/30 05:02:59;;;;;;;7.88;3.30;;;;;;;-9.92;76.65;99597.88;5033148;28;20275;-67
2021/12/30 05:05:30;;;;;;;5.90;2.92;;;;;;;-10.10;76.79;99567.44;5033519;28;20081;-70
2021/12/30 05:08:03;;;;;;;2.90;2.55;;;;;;;-9.91;76.61;99593.69;5032482;28;20072;-68
2021/12/30 05:10:33;;;;;;;5.65;2.67;;;;;;;-10.01;77.02;99595.72;5032928;28;20069;-68
2021/12/30 05:13:05;;;;;;;4.75;2.88;;;;;;;-10.23;77.05;99539.78;5033625;28;20294;-69
2021/12/30 05:15:37;;;;;;;4.82;3.25;;;;;;;-10.07;76.97;99572.63;5033062;28;20108;-68
2021/12/30 05:18:09;;;;;;;5.30;2.63;;;;;;;-10.07;76.87;99570.13;5033347;28;20053;-67
2021/12/30 05:20:41;;;;;;;3.40;2.30;;;;;;;-10.02;76.92;99599.03;5033213;28;20144;-67
2021/12/30 05:23:14;;;;;;;2.72;2.25;;;;;;;-10.11;77.04;99596.00;5033584;28;20787;-68
2021/12/30 05:25:44;;;;;;;7.47;2.28;;;;;;;-10.22;77.22;99586.97;5033027;28;20306;-69
2021/12/30 05:28:16;;;;;;;11.95;2.80;;;;;;;-10.32;77.47;99567.09;5033480;28;20116;-69
2021/12/30 05:30:47;;;;;;;5.20;2.60;;;;;;;-10.33;77.25;99570.38;5033282;28;20231;-68
2021/12/30 05:33:18;;;;;;;8.80;3.13;;;;;;;-10.30;77.26;99593.31;5033845;28;20061;-68
2021/12/30 05:35:49;;;;;;;7.05;2.70;;;;;;;-10.24;77.43;99589.41;5033463;28;20219;-70
2021/12/30 05:38:22;;;;;;;4.60;3.50;;;;;;;-10.68;77.45;99523.88;5033351;28;20050;-70
2021/12/30 05:40:53;;;;;;;6.80;2.88;;;;;;;-10.38;77.55;99584.41;5033309;28;20077;-70
2021/12/30 05:43:24;;;;;;;5.93;2.45;;;;;;;-10.46;78.02;99582.34;5033225;28;20089;-70
2021/12/30 05:45:54;;;;;;;6.00;2.58;;;;;;;-10.34;78.10;99596.44;5033268;28;20239;-70
2021/12/30 05:48:25;;;;;;;6.97;2.72;;;;;;;-10.58;78.25;99566.50;5033279;28;20116;-70
2021/12/30 05:50:59;;;;;;;5.90;3.45;;;;;;;-10.59;78.46;99574.84;5033376;28;20046;-70
2021/12/30 05:53:32;;;;;;;8.70;3.83;;;;;;;-10.68;78.43;99574.34;5033226;28;20049;-69
2021/12/30 05:56:03;;;;;;;7.53;3.90;;;;;;;-10.51;78.38;99608.09;5033320;28;20072;-70
2021/12/30 05:58:34;;;;;;;8.55;4.00;;;;;;;-10.59;78.69;99607.66;5033281;28;20091;-69
2021/12/30 06:01:05;;;;;;;9.20;3.78;;;;;;;-10.67;78.77;99603.84;5035966;28;20705;-69
2021/12/30 06:03:36;;;;;;;4.47;2.95;;;;;;;-10.65;78.67;99614.91;5035409;28;20053;-70
2021/12/30 06:06:07;;;;;;;5.03;2.35;;;;;;;-10.74;78.62;99614.38;5037140;28;20049;-68
2021/12/30 06:08:40;;;;;;;5.13;2.45;;;;;;;-10.79;78.82;99611.59;5037089;28;20541;-70
2021/12/30 06:11:10;;;;;;;3.95;2.30;;;;;;;-10.92;79.03;99599.91;5037132;28;20053;-70
2021/12/30 06:13:41;;;;;;;4.00;2.85;;;;;;;-10.99;79.23;99602.88;5036179;28;20073;-71
2021/12/30 06:16:12;;;;;;;5.47;2.53;;;;;;;-10.90;79.49;99613.50;5036728;28;20115;-69
2021/12/30 06:18:43;;;;;;;3.83;2.55;;;;;;;-11.12;79.42;99580.22;5036045;28;20061;-68
2021/12/30 06:21:14;;;;;;;5.75;2.42;;;;;;;-10.96;79.64;99620.69;5036828;28;20057;-68
2021/12/30 06:23:46;;;;;;;3.50;2.70;;;;;;;-11.11;79.27;99589.53;5037012;28;20326;-68
2021/12/30 06:26:17;;;;;;;4.78;2.55;;;;;;;-11.07;79.45;99619.22;5036779;28;20051;-69
2021/12/30 06:28:47;;;;;;;6.45;3.13;;;;;;;-11.06;79.48;99610.84;5037088;28;20081;-68
2021/12/30 06:31:18;;;;;;;5.15;3.15;;;;;;;-11.22;79.47;99603.19;5037435;28;20109;-69
2021/12/30 06:33:49;;;;;;;4.05;3.03;;;;;;;-11.17;79.83;99621.97;5037598;28;20119;-69
2021/12/30 06:36:21;;;;;;;3.58;2.58;;;;;;;-11.23;79.77;99616.56;5037511;28;20391;-68
2021/12/30 06:38:54;;;;;;;6.85;2.30;;;;;;;-11.43;80.23;99600.22;5037385;28;20087;-69
2021/12/30 06:41:25;;;;;;;6.00;2.60;;;;;;;-11.30;80.21;99636.38;5037089;28;20059;-69
2021/12/30 06:43:55;;;;;;;4.22;3.15;;;;;;;-11.34;80.36;99624.34;5036856;28;20128;-71
2021/12/30 06:46:26;;;;;;;9.15;3.65;;;;;;;-11.51;80.52;99614.91;5037242;28;20041;-69
2021/12/30 06:48:57;;;;;;;6.18;2.70;;;;;;;-11.50;80.52;99616.66;5036196;28;20042;-69
2021/12/30 06:51:34;;;;;;;10.48;3.40;;;;;;;-11.72;80.57;99590.16;5037086;28;20401;-69
2021/12/30 06:54:07;;;;;;;4.88;2.90;;;;;;;-11.55;80.38;99623.94;5035101;28;20076;-68
2021/12/30 06:56:39;;;;;;;5.10;2.45;;;;;;;-11.69;80.66;99613.81;5036353;28;20048;-67
2021/12/30 06:59:10;;;;;;;6.15;2.63;;;;;;;-11.86;80.48;99600.19;5036004;28;20053;-69
2021/12/30 07:01:40;;;;;;;5.05;2.60;;;;;;;-11.77;80.62;99611.69;5036048;28;20109;-68
2021/12/30 07:04:12;;;;;;;2.70;2.42;;;;;;;-11.75;80.74;99625.25;5035578;28;20307;-69
2021/12/30 07:06:43;;;;;;;6.68;2.35;;;;;;;-11.93;80.57;99609.00;5036079;28;20524;-68
2021/12/30 07:09:15;;;;;;;8.48;2.80;;;;;;;-11.87;80.76;99614.44;5032818;28;20061;-68
2021/12/30 07:11:48;;;;;;;8.60;3.08;;;;;;;-11.89;80.66;99610.09;5034564;28;20120;-68
2021/12/30 07:14:20;;;;;;;5.07;3.65;;;;;;;-11.82;80.85;99618.09;5036351;28;20088;-68
2021/12/30 07:16:51;;;;;;;5.80;2.97;;;;;;;-12.01;80.49;99590.03;5036204;28;20049;-68
2021/12/30 07:19:22;;;;;;;11.27;3.83;;;;;;;-11.68;80.72;99635.69;5036138;28;20050;-70
2021/12/30 07:21:53;;;;;;;31.55;8.77;;;;;;;-11.79;80.45;99628.34;5035730;28;20072;-69
2021/12/30 07:24:26;;;;;;;16.58;6.80;;;;;;;-11.83;80.08;99628.97;5035904;28;20291;-70
2021/12/30 07:26:57;;;;;;;90.28;18.77;;;;;;;-11.81;80.04;99639.97;5036011;28;20061;-72
2021/12/30 07:29:28;;;;;;;25.70;7.53;;;;;;;-11.87;80.22;99634.59;5035935;28;20062;-71
2021/12/30 07:31:58;;;;;;;16.27;3.08;;;;;;;-11.94;80.43;99627.44;5035310;28;20053;-67
2021/12/30 07:34:29;;;;;;;20.98;6.40;;;;;;;-11.90;80.35;99634.41;5034972;28;20113;-66
2021/12/30 07:37:00;;;;;;;29.42;11.07;;;;;;;-11.84;80.71;99633.88;5034830;28;20104;-69
2021/12/30 07:39:32;;;;;;;9.60;4.82;;;;;;;-12.17;80.33;99579.03;5035519;28;20057;-66
2021/12/30 07:42:03;;;;;;;6.93;3.60;;;;;;;-11.87;80.34;99629.56;5035485;28;20114;-66
2021/12/30 07:44:34;;;;;;;7.35;3.80;;;;;;;-12.01;80.23;99605.16;5035425;28;20100;-66
2021/12/30 07:47:18;;;;;;;18.13;8.32;;;;;;;-11.82;80.07;99638.25;5035647;28;20166;-65
2021/12/30 07:49:49;;;;;;;23.90;7.15;;;;;;;-11.78;79.96;99630.13;5035477;28;20120;-66
2021/12/30 07:52:20;;;;;;;9.40;4.18;;;;;;;-11.82;79.95;99630.69;5035833;28;20097;-65
2021/12/30 07:54:53;;;;;;;4.22;3.08;;;;;;;-11.94;79.84;99607.28;5004913;28;20116;-66
2021/12/30 07:57:23;;;;;;;6.35;3.70;;;;;;;-11.94;79.61;99637.50;5033602;28;20115;-67
2021/12/30 07:59:55;;;;;;;2.58;2.38;;;;;;;-11.96;80.01;99634.03;5035128;28;20360;-68
2021/12/30 08:02:27;;;;;;;7.72;3.10;;;;;;;-12.01;80.12;99627.81;5034070;28;20093;-68
2021/12/30 08:04:58;;;;;;;4.35;3.05;;;;;;;-12.04;80.15;99625.13;5034913;28;20049;-67
2021/12/30 08:07:29;;;;;;;3.05;2.58;;;;;;;-11.92;80.28;99643.53;5035043;28;20061;-68
2021/12/30 08:10:01;;;;;;;4.97;2.65;;;;;;;-12.08;80.35;99615.63;5034267;28;20079;-67
2021/12/30 08:12:32;;;;;;;4.95;2.60;;;;;;;-11.97;80.04;99629.78;5034080;28;20093;-68
2021/12/30 08:15:03;;;;;;;4.88;2.45;;;;;;;-11.99;80.24;99624.63;5034575;28;20120;-67
2021/12/30 08:17:34;;;;;;;3.70;2.67;;;;;;;-11.93;80.16;99644.28;5034641;28;20462;-67
2021/12/30 08:20:06;;;;;;;5.22;2.60;;;;;;;-12.02;80.31;99633.66;5034589;28;20125;-67
2021/12/30 08:22:37;;;;;;;3.38;2.42;;;;;;;-12.03;80.18;99636.94;5033353;28;20103;-67
2021/12/30 08:25:11;;;;;;;5.22;2.45;;;;;;;-11.96;80.06;99659.22;5033324;28;20760;-68
2021/12/30 08:27:43;;;;;;;3.70;2.38;;;;;;;-12.11;80.36;99638.09;5034429;28;20084;-67
2021/12/30 08:30:17;;;;;;;5.78;2.58;;;;;;;-12.09;80.05;99641.59;5034680;28;20084;-67
2021/12/30 08:32:49;;;;;;;5.53;2.55;;;;;;;-12.03;80.13;99652.03;5034532;28;20092;-67
2021/12/30 08:35:21;;;;;;;3.60;2.30;;;;;;;-12.09;80.35;99641.59;5034900;28;20085;-68
2021/12/30 08:37:54;;;;;;;5.45;2.45;;;;;;;-12.01;80.15;99655.53;5034698;28;20049;-68
2021/12/30 08:40:26;;;;;;;6.30;2.88;;;;;;;-12.09;80.23;99651.66;5034479;28;20116;-67
2021/12/30 08:42:57;;;;;;;4.78;2.78;;;;;;;-12.04;79.88;99655.34;5032940;28;20076;-67
2021/12/30 08:45:28;;;;;;;18.33;6.53;;;;;;;-12.47;79.70;99589.69;5032030;28;20631;-68
2021/12/30 08:47:59;;;;;;;41.10;11.30;;;;;;;-12.19;79.49;99646.03;5032369;28;20124;-68
2021/12/30 08:50:30;;;;;;;58.58;14.40;;;;;;;-12.23;79.85;99639.09;5032187;28;20043;-66
2021/12/30 08:53:00;;;;;;;20.42;6.57;;;;;;;-12.13;79.77;99659.78;5033076;28;20120;-68
2021/12/30 08:55:33;;;;;;;10.50;4.30;;;;;;;-12.19;79.31;99651.09;5032887;28;20061;-67
2021/12/30 08:58:04;;;;;;;13.60;3.83;;;;;;;-12.43;79.16;99604.19;5032664;28;20049;-68
2021/12/30 09:00:38;;;;;;;21.90;4.13;;;;;;;-12.17;79.19;99649.53;5032514;28;20045;-66
2021/12/30 09:03:09;;;;;;;36.83;7.47;;;;;;;-12.21;79.05;99635.00;5031772;28;20056;-67
2021/12/30 09:05:40;;;;;;;13.45;4.15;;;;;;;-12.09;78.78;99656.72;5032015;28;20053;-67
2021/12/30 09:08:11;;;;;;;20.65;5.63;;;;;;;-12.09;78.70;99656.72;5032787;28;20124;-68
2021/12/30 09:10:45;;;;;;;6.28;2.78;;;;;;;-12.21;78.45;99657.66;5031597;28;20071;-67
2021/12/30 09:13:20;;;;;;;23.80;7.25;;;;;;;-12.46;78.52;99634.22;5032462;28;20061;-68
2021/12/30 09:15:52;;;;;;;10.02;5.22;;;;;;;-12.22;78.33;99650.91;5032789;28;20084;-69
2021/12/30 09:18:24;;;;;;;18.80;8.68;;;;;;;-12.37;78.46;99634.81;5031928;28;20426;-69
2021/12/30 09:20:55;;;;;;;37.95;14.10;;;;;;;-12.28;78.14;99650.53;5032165;28;20339;-67
2021/12/30 09:23:26;;;;;;;29.95;12.35;;;;;;;-12.32;78.38;99646.03;5032204;28;20117;-68
2021/12/30 09:25:58;;;;;;;28.88;9.23;;;;;;;-12.57;78.29;99605.00;5031937;28;20068;-68
2021/12/30 09:28:29;;;;;;;36.83;10.38;;;;;;;-12.23;78.36;99664.28;5031771;28;20077;-69
2021/12/30 09:31:00;;;;;;;16.55;7.40;;;;;;;-12.42;78.10;99636.16;5031685;28;20049;-68
2021/12/30 09:33:31;;;;;;;12.30;4.63;;;;;;;-12.90;78.02;99539.13;5031998;28;20255;-69
2021/12/30 09:36:02;;;;;;;15.48;6.32;;;;;;;-12.52;78.02;99603.63;5031235;28;20128;-69
2021/12/30 09:38:33;;;;;;;13.73;6.10;;;;;;;-12.17;77.86;99658.75;5032087;28;20047;-67
2021/12/30 09:41:06;;;;;;;22.50;6.85;;;;;;;-12.17;77.52;99659.59;5032465;28;21033;-69
2021/12/30 09:43:36;;;;;;;14.82;5.90;;;;;;;-12.24;77.38;99647.41;5032327;28;20049;-67
2021/12/30 09:46:09;;;;;;;17.17;6.45;;;;;;;-12.18;77.37;99670.47;5031880;28;20489;-68
2021/12/30 09:48:40;;;;;;;13.00;4.65;;;;;;;-12.17;77.14;99669.69;5031784;28;20053;-67
2021/12/30 09:51:12;;;;;;;11.60;4.20;;;;;;;-12.48;77.16;99618.13;5030385;28;20076;-69
2021/12/30 09:53:42;;;;;;;3.15;2.35;;;;;;;-12.35;77.08;99648.38;5031317;28;20053;-67
2021/12/30 09:56:15;;;;;;;2.83;2.40;;;;;;;-12.20;77.23;99674.53;5031305;28;20069;-66
2021/12/30 09:58:46;;;;;;;3.67;2.30;;;;;;;-12.23;77.13;99679.38;5032174;28;20041;-67
2021/12/30 10:01:17;;;;;;;3.28;2.28;;;;;;;-12.28;77.16;99673.19;5032127;28;20311;-68
2021/12/30 10:03:49;;;;;;;5.10;2.03;;;;;;;-12.29;77.44;99678.09;5032771;28;20348;-69
2021/12/30 10:06:20;;;;;;;3.03;2.45;;;;;;;-12.34;77.20;99670.25;5033372;28;20072;-68
2021/12/30 10:08:58;;;;;;;2.88;2.20;;;;;;;-12.34;77.30;99672.75;5032686;28;20041;-69
2021/12/30 10:11:31;;;;;;;3.53;2.53;;;;;;;-12.27;77.66;99671.53;5033132;28;20045;-68
2021/12/30 10:14:02;;;;;;;3.95;3.20;;;;;;;-12.34;77.68;99660.19;5033209;28;20045;-68
2021/12/30 10:16:33;;;;;;;4.22;2.42;;;;;;;-13.13;77.37;99513.38;5033165;28;20108;-68
2021/12/30 10:19:06;;;;;;;3.10;2.13;;;;;;;-12.62;77.65;99587.94;5032974;28;20057;-66
2021/12/30 10:21:40;;;;;;;4.03;2.25;;;;;;;-12.10;77.53;99665.03;5033072;28;20112;-69
2021/12/30 10:24:13;;;;;;;3.42;2.20;;;;;;;-12.19;77.32;99660.28;5032279;28;20061;-66
2021/12/30 10:26:54;;;;;;;3.42;2.20;;;;;;;-12.12;77.16;99666.59;5032829;28;20038;-69
2021/12/30 10:29:26;;;;;;;2.83;2.13;;;;;;;-12.17;77.33;99664.66;5033044;28;20045;-67
2021/12/30 10:31:57;;;;;;;4.03;2.53;;;;;;;-12.22;77.37;99671.03;5032685;28;20053;-66
2021/12/30 10:34:28;;;;;;;4.03;3.20;;;;;;;-12.27;77.45;99669.88;5033081;28;20303;-67
2021/12/30 10:36:59;;;;;;;6.53;2.90;;;;;;;-12.35;77.60;99658.44;5032703;28;20081;-68
2021/12/30 10:39:33;;;;;;;3.72;2.33;;;;;;;-12.74;77.73;99598.84;5032038;28;20068;-68
2021/12/30 10:42:21;;;;;;;4.47;2.60;;;;;;;-12.38;77.94;99653.19;5032438;28;20069;-66
2021/12/30 10:44:59;;;;;;;4.70;2.50;;;;;;;-12.70;77.86;99604.19;5032842;28;20095;-68
2021/12/30 10:47:33;;;;;;;3.00;2.00;;;;;;;-12.46;78.07;99649.31;5035371;28;20113;-67
2021/12/30 10:50:07;;;;;;;2.95;2.45;;;;;;;-12.52;78.18;99653.97;5036713;28;20067;-67
2021/12/30 10:52:49;;;;;;;3.95;3.22;;;;;;;-12.80;78.20;99599.34;5035202;28;20104;-68
2021/12/30 10:55:21;;;;;;;5.03;3.10;;;;;;;-12.90;78.23;99591.94;5034555;28;20051;-68
2021/12/30 10:57:53;;;;;;;4.50;2.60;;;;;;;-12.76;77.90;99633.97;5033764;28;20049;-69
2021/12/30 11:00:28;;;;;;;4.47;2.67;;;;;;;-12.66;78.27;99641.34;5036128;28;20084;-69
2021/12/30 11:03:20;;;;;;;3.13;2.83;;;;;;;-12.57;78.00;99657.84;5036099;28;20103;-69
2021/12/30 11:06:12;;;;;;;2.42;2.17;;;;;;;-12.75;77.92;99635.72;5036320;28;20067;-69
2021/12/30 11:08:43;;;;;;;2.97;2.28;;;;;;;-12.62;78.03;99653.38;5035978;28;20136;-69
2021/12/30 11:11:27;;;;;;;3.00;2.40;;;;;;;-12.87;78.01;99605.59;5036026;28;20096;-70
2021/12/30 11:14:07;;;;;;;3.35;2.42;;;;;;;-12.86;78.06;99627.47;5035828;28;20072;-69
2021/12/30 11:17:07;;;;;;;3.57;2.17;;;;;;;-12.70;77.96;99654.50;5035932;28;20077;-69
2021/12/30 11:19:41;;;;;;;4.88;2.88;;;;;;;-12.75;77.83;99658.38;5035957;28;20622;-68
2021/12/30 11:22:14;;;;;;;16.15;4.88;;;;;;;-12.80;77.85;99652.16;5035686;28;20288;-68
2021/12/30 11:24:47;;;;;;;9.25;3.72;;;;;;;-12.91;77.85;99643.03;5034860;28;20072;-67
2021/12/30 11:27:19;;;;;;;5.00;2.65;;;;;;;-13.00;77.49;99627.31;5035577;28;20083;-67
2021/12/30 11:29:53;;;;;;;2.83;2.50;;;;;;;-13.05;77.66;99635.44;5035872;28;20116;-68
2021/12/30 11:32:28;;;;;;;4.28;2.40;;;;;;;-12.96;77.67;99659.47;5035553;28;20398;-68
2021/12/30 11:34:59;;;;;;;4.63;2.78;;;;;;;-13.06;77.82;99646.25;5035656;28;20053;-68
2021/12/30 11:37:30;;;;;;;3.88;2.40;;;;;;;-12.99;77.79;99664.28;5034356;28;20076;-67
2021/12/30 11:40:07;;;;;;;3.20;2.70;;;;;;;-13.05;77.46;99659.72;5033993;28;20053;-68
2021/12/30 11:42:41;;;;;;;3.58;2.60;;;;;;;-13.22;77.40;99651.06;5033452;28;20419;-68
2021/12/30 11:45:30;;;;;;;15.70;4.28;;;;;;;-13.31;77.50;99630.34;5034602;28;20614;-68
2021/12/30 11:48:02;;;;;;;62.58;12.65;;;;;;;-13.22;77.34;99671.16;5033991;28;20108;-68